createdAt,value
2023-04-12T00:00:04.197Z,30.85
2023-04-12T00:01:06.695Z,30.93
2023-04-12T00:02:08.853Z,30.83
2023-04-12T00:03:10.947Z,30.74
2023-04-12T00:04:14.814Z,30.83
2023-04-12T00:05:16.798Z,30.84
2023-04-12T00:06:19.055Z,30.73
2023-04-12T00:07:24.931Z,30.68
2023-04-12T00:08:33.064Z,30.84
2023-04-12T00:09:36.456Z,30.54
2023-04-12T00:10:38.481Z,30.59
2023-04-12T00:11:40.379Z,30.81
2023-04-12T00:12:42.331Z,30.74
2023-04-12T00:13:44.198Z,30.73
2023-04-12T00:14:47.159Z,30.44
2023-04-12T00:15:49.559Z,30.71
2023-04-12T00:16:51.684Z,30.74
2023-04-12T00:17:53.787Z,30.40
2023-04-12T00:18:55.716Z,30.59
2023-04-12T00:19:57.597Z,30.55
2023-04-12T00:20:59.460Z,30.58
2023-04-12T00:22:01.434Z,30.57
2023-04-12T00:23:03.578Z,30.44
2023-04-12T00:24:05.733Z,30.48
2023-04-12T00:25:08.689Z,30.42
2023-04-12T00:26:10.625Z,30.53
2023-04-12T00:27:12.513Z,30.52
2023-04-12T00:28:16.141Z,30.27
2023-04-12T00:29:18.213Z,30.36
2023-04-12T00:30:21.029Z,30.39
2023-04-12T00:31:23.068Z,30.37
2023-04-12T00:32:24.997Z,30.24
2023-04-12T00:33:26.863Z,30.25
2023-04-12T00:34:28.955Z,30.19
2023-04-12T00:35:31.132Z,30.37
2023-04-12T00:36:33.156Z,30.42
2023-04-12T00:37:36.653Z,30.33
2023-04-12T00:38:38.461Z,30.47
2023-04-12T00:39:40.356Z,30.42
2023-04-12T00:40:43.745Z,30.32
2023-04-12T00:41:45.579Z,30.21
2023-04-12T00:42:47.485Z,30.33
2023-04-12T00:43:49.830Z,30.36
2023-04-12T00:44:51.877Z,30.49
2023-04-12T00:45:58.046Z,30.37
2023-04-12T00:47:00.829Z,30.27
2023-04-12T00:48:03.787Z,30.32
2023-04-12T00:49:06.573Z,30.33
2023-04-12T00:50:09.789Z,30.49
2023-04-12T00:51:11.703Z,30.32
2023-04-12T00:52:15.628Z,30.29
2023-04-12T00:53:18.825Z,30.15
2023-04-12T00:54:22.435Z,30.32
2023-04-12T00:55:24.544Z,30.34
2023-04-12T00:56:28.456Z,30.28
2023-04-12T00:57:39.895Z,30.23
2023-04-12T00:58:41.884Z,30.20
2023-04-12T00:59:43.674Z,30.45
2023-04-12T01:00:50.512Z,30.15
2023-04-12T01:01:54.139Z,30.32
2023-04-12T01:02:57.043Z,30.32
2023-04-12T01:04:04.728Z,30.27
2023-04-12T01:05:08.872Z,30.16
2023-04-12T01:06:29.912Z,30.26
2023-04-12T01:08:00.819Z,30.13
2023-04-12T01:09:20.551Z,30.24
2023-04-12T01:10:35.634Z,30.15
2023-04-12T01:12:06.611Z,30.17
2023-04-12T01:13:33.158Z,30.07
2023-04-12T01:15:07.386Z,30.10
2023-04-12T01:16:26.417Z,30.04
2023-04-12T01:17:37.950Z,30.27
2023-04-12T01:18:50.696Z,30.11
2023-04-12T01:20:17.243Z,30.10
2023-04-12T01:21:52.897Z,30.21
2023-04-12T01:23:34.935Z,30.16
2023-04-12T01:24:59.489Z,30.10
2023-04-12T01:26:34.725Z,30.12
2023-04-12T01:28:01.256Z,30.18
2023-04-12T01:29:10.266Z,30.28
2023-04-12T01:30:17.023Z,29.99
2023-04-12T01:31:21.641Z,30.33
2023-04-12T01:32:24.182Z,30.31
2023-04-12T01:33:31.669Z,30.38
2023-04-12T01:34:36.477Z,30.28
2023-04-12T01:35:39.880Z,30.28
2023-04-12T01:36:46.392Z,30.21
2023-04-12T01:37:48.863Z,30.30
2023-04-12T01:38:52.018Z,30.38
2023-04-12T01:39:54.482Z,30.34
2023-04-12T01:40:56.428Z,30.29
2023-04-12T01:41:58.269Z,30.34
2023-04-12T01:43:14.050Z,30.28
2023-04-12T01:44:17.463Z,30.47
2023-04-12T01:45:19.706Z,30.34
2023-04-12T01:46:23.929Z,30.35
2023-04-12T01:47:27.194Z,30.20
2023-04-12T01:48:29.203Z,30.30
2023-04-12T01:49:47.816Z,30.32
2023-04-12T01:51:06.352Z,30.35
2023-04-12T01:52:23.424Z,30.26
2023-04-12T01:53:28.035Z,30.43
2023-04-12T01:54:37.040Z,30.24
2023-04-12T01:55:46.176Z,30.42
2023-04-12T01:56:58.095Z,30.25
2023-04-12T01:58:03.495Z,30.28
2023-04-12T01:59:07.343Z,30.21
2023-04-12T02:00:11.836Z,30.57
2023-04-12T02:01:16.269Z,30.31
2023-04-12T02:02:19.446Z,30.41
2023-04-12T02:03:24.384Z,30.26
2023-04-12T02:04:28.248Z,30.27
2023-04-12T02:05:31.282Z,30.35
2023-04-12T02:06:34.572Z,30.37
2023-04-12T02:07:37.582Z,30.44
2023-04-12T02:08:40.020Z,30.13
2023-04-12T02:09:41.840Z,30.34
2023-04-12T02:10:43.624Z,30.11
2023-04-12T02:11:49.871Z,30.33
2023-04-12T02:12:51.735Z,30.18
2023-04-12T02:13:53.674Z,30.29
2023-04-12T02:14:57.125Z,30.37
2023-04-12T02:15:59.148Z,30.09
2023-04-12T02:17:02.539Z,29.85
2023-04-12T02:18:04.671Z,30.31
2023-04-12T02:19:08.336Z,30.20
2023-04-12T02:20:12.030Z,30.15
2023-04-12T02:21:14.130Z,30.09
2023-04-12T02:22:16.960Z,30.27
2023-04-12T02:23:18.807Z,30.11
2023-04-12T02:24:21.392Z,30.30
2023-04-12T02:25:23.352Z,30.08
2023-04-12T02:26:25.736Z,30.12
2023-04-12T02:27:27.557Z,30.12
2023-04-12T02:28:29.540Z,30.30
2023-04-12T02:29:31.838Z,30.59
2023-04-12T02:30:33.935Z,30.09
2023-04-12T02:31:38.955Z,30.03
2023-04-12T02:32:46.885Z,30.03
2023-04-12T02:33:49.058Z,30.04
2023-04-12T02:34:53.675Z,30.15
2023-04-12T02:35:57.151Z,30.17
2023-04-12T02:36:59.156Z,30.19
2023-04-12T02:38:01.010Z,30.11
2023-04-12T02:39:02.966Z,30.25
2023-04-12T02:40:06.883Z,30.32
2023-04-12T02:41:08.747Z,30.21
2023-04-12T02:42:10.760Z,30.07
2023-04-12T02:43:12.675Z,30.21
2023-04-12T02:44:14.590Z,30.16
2023-04-12T02:45:16.465Z,30.14
2023-04-12T02:46:24.476Z,30.33
2023-04-12T02:47:29.124Z,30.17
2023-04-12T02:48:31.002Z,30.25
2023-04-12T02:49:33.026Z,29.58
2023-04-12T02:50:38.175Z,30.25
2023-04-12T02:51:40.076Z,30.05
2023-04-12T02:52:41.934Z,29.99
2023-04-12T02:53:43.860Z,30.10
2023-04-12T02:54:46.174Z,30.15
2023-04-12T02:55:48.181Z,30.18
2023-04-12T02:56:49.970Z,30.11
2023-04-12T02:57:51.779Z,29.99
2023-04-12T02:58:53.719Z,29.90
2023-04-12T02:59:55.657Z,29.89
2023-04-12T03:01:00.482Z,30.12
2023-04-12T03:02:02.471Z,30.06
2023-04-12T03:03:05.005Z,30.17
2023-04-12T03:04:07.801Z,29.93
2023-04-12T03:05:10.963Z,29.89
2023-04-12T03:06:13.629Z,29.95
2023-04-12T03:07:17.267Z,30.26
2023-04-12T03:08:19.723Z,29.99
2023-04-12T03:09:21.625Z,29.93
2023-04-12T03:10:23.868Z,30.12
2023-04-12T03:11:25.899Z,29.83
2023-04-12T03:12:28.810Z,30.16
2023-04-12T03:13:31.268Z,30.18
2023-04-12T03:14:33.165Z,29.95
2023-04-12T03:15:35.432Z,30.02
2023-04-12T03:16:37.653Z,30.09
2023-04-12T03:17:39.536Z,30.18
2023-04-12T03:18:41.400Z,30.04
2023-04-12T03:19:43.448Z,29.91
2023-04-12T03:20:47.634Z,30.12
2023-04-12T03:21:49.941Z,30.28
2023-04-12T03:22:51.816Z,30.00
2023-04-12T03:23:53.817Z,30.20
2023-04-12T03:24:55.703Z,30.15
2023-04-12T03:25:58.175Z,30.02
2023-04-12T03:27:02.241Z,29.76
2023-04-12T03:28:04.369Z,30.04
2023-04-12T03:29:09.566Z,30.08
2023-04-12T03:30:13.824Z,30.19
2023-04-12T03:31:20.609Z,30.20
2023-04-12T03:32:24.281Z,29.87
2023-04-12T03:33:27.346Z,30.00
2023-04-12T03:34:32.466Z,30.23
2023-04-12T03:35:34.448Z,30.10
2023-04-12T03:36:36.332Z,29.93
2023-04-12T03:37:43.180Z,30.21
2023-04-12T03:38:45.332Z,29.87
2023-04-12T03:39:48.407Z,30.00
2023-04-12T03:40:50.972Z,30.17
2023-04-12T03:41:53.672Z,30.02
2023-04-12T03:42:55.629Z,30.10
2023-04-12T03:43:57.765Z,30.16
2023-04-12T03:44:59.817Z,29.88
2023-04-12T03:46:06.630Z,29.87
2023-04-12T03:47:08.897Z,30.01
2023-04-12T03:48:12.317Z,30.08
2023-04-12T03:49:14.469Z,30.07
2023-04-12T03:50:16.413Z,29.97
2023-04-12T03:51:18.527Z,30.11
2023-04-12T03:52:20.713Z,29.96
2023-04-12T03:53:22.842Z,29.92
2023-04-12T03:54:25.130Z,30.02
2023-04-12T03:55:27.102Z,30.03
2023-04-12T03:56:28.932Z,30.04
2023-04-12T03:57:30.920Z,29.98
2023-04-12T03:58:34.000Z,29.81
2023-04-12T03:59:36.052Z,29.96
2023-04-12T04:00:37.911Z,29.84
2023-04-12T04:01:39.971Z,29.99
2023-04-12T04:02:42.073Z,30.04
2023-04-12T04:03:46.587Z,30.04
2023-04-12T04:04:48.961Z,29.88
2023-04-12T04:05:50.915Z,29.79
2023-04-12T04:06:53.073Z,29.75
2023-04-12T04:07:54.933Z,29.88
2023-04-12T04:09:00.829Z,29.77
2023-04-12T04:10:03.303Z,29.76
2023-04-12T04:12:09.312Z,29.92
2023-04-12T04:13:11.163Z,29.62
2023-04-12T04:14:13.512Z,29.78
2023-04-12T04:15:15.906Z,29.50
2023-04-12T04:16:18.211Z,29.72
2023-04-12T04:17:20.269Z,29.75
2023-04-12T04:18:22.531Z,29.75
2023-04-12T04:19:24.485Z,29.44
2023-04-12T04:20:27.850Z,29.74
2023-04-12T04:21:32.979Z,29.85
2023-04-12T04:22:34.858Z,29.63
2023-04-12T04:23:39.980Z,29.71
2023-04-12T04:24:42.930Z,29.67
2023-04-12T04:25:45.645Z,29.63
2023-04-12T04:26:47.572Z,29.72
2023-04-12T04:27:49.618Z,29.65
2023-04-12T04:28:51.906Z,29.63
2023-04-12T04:29:53.715Z,29.79
2023-04-12T04:30:56.894Z,29.56
2023-04-12T04:31:59.539Z,30.00
2023-04-12T04:33:01.824Z,29.69
2023-04-12T04:34:05.520Z,29.78
2023-04-12T04:35:08.291Z,29.65
2023-04-12T04:36:11.116Z,29.67
2023-04-12T04:37:13.337Z,29.64
2023-04-12T04:38:16.022Z,29.78
2023-04-12T04:39:17.872Z,29.75
2023-04-12T04:40:21.612Z,29.69
2023-04-12T04:41:24.275Z,29.63
2023-04-12T04:42:26.493Z,29.85
2023-04-12T04:43:30.388Z,29.88
2023-04-12T04:44:36.105Z,29.51
2023-04-12T04:45:39.075Z,29.67
2023-04-12T04:46:41.209Z,29.60
2023-04-12T04:47:43.466Z,29.70
2023-04-12T04:48:45.659Z,29.65
2023-04-12T04:49:48.060Z,29.67
2023-04-12T04:50:51.807Z,29.71
2023-04-12T04:51:54.319Z,29.67
2023-04-12T04:52:56.161Z,29.82
2023-04-12T04:53:59.298Z,29.78
2023-04-12T04:55:02.443Z,29.64
2023-04-12T04:56:06.036Z,29.66
2023-04-12T04:57:11.915Z,29.84
2023-04-12T04:58:15.272Z,29.79
2023-04-12T04:59:18.445Z,29.75
2023-04-12T05:00:21.759Z,29.78
2023-04-12T05:01:28.838Z,29.58
2023-04-12T05:02:31.750Z,29.86
2023-04-12T05:03:42.776Z,29.77
2023-04-12T05:04:44.812Z,29.60
2023-04-12T05:05:52.103Z,29.72
2023-04-12T05:06:53.884Z,29.65
2023-04-12T05:07:56.625Z,29.53
2023-04-12T05:08:58.879Z,29.64
2023-04-12T05:10:01.175Z,29.60
2023-04-12T05:11:03.563Z,29.72
2023-04-12T05:12:06.283Z,29.57
2023-04-12T05:13:10.138Z,29.60
2023-04-12T05:14:12.704Z,30.37
2023-04-12T05:15:15.321Z,29.58
2023-04-12T05:16:17.193Z,29.66
2023-04-12T05:17:19.091Z,29.66
2023-04-12T05:18:21.540Z,29.60
2023-04-12T05:19:23.711Z,29.76
2023-04-12T05:20:25.808Z,29.44
2023-04-12T05:21:29.000Z,29.69
2023-04-12T05:22:31.141Z,29.82
2023-04-12T05:23:42.006Z,29.78
2023-04-12T05:24:43.843Z,29.65
2023-04-12T05:25:48.330Z,29.50
2023-04-12T05:26:52.108Z,29.74
2023-04-12T05:27:53.980Z,29.58
2023-04-12T05:28:56.045Z,29.66
2023-04-12T05:29:58.614Z,29.56
2023-04-12T05:31:00.681Z,29.74
2023-04-12T05:32:02.813Z,29.66
2023-04-12T05:33:04.776Z,29.70
2023-04-12T05:34:06.642Z,29.75
2023-04-12T05:35:08.986Z,29.82
2023-04-12T05:36:12.184Z,29.56
2023-04-12T05:37:14.061Z,29.76
2023-04-12T05:38:16.021Z,29.68
2023-04-12T05:39:20.518Z,29.72
2023-04-12T05:40:22.652Z,29.78
2023-04-12T05:41:24.571Z,29.49
2023-04-12T05:42:27.127Z,29.76
2023-04-12T05:43:29.194Z,29.80
2023-04-12T05:44:31.498Z,29.69
2023-04-12T05:45:33.381Z,29.66
2023-04-12T05:46:36.243Z,29.67
2023-04-12T05:47:38.239Z,29.89
2023-04-12T05:48:40.343Z,29.76
2023-04-12T05:49:42.201Z,29.50
2023-04-12T05:50:52.717Z,29.48
2023-04-12T05:51:54.844Z,29.50
2023-04-12T05:52:57.017Z,29.53
2023-04-12T05:53:58.872Z,29.66
2023-04-12T05:55:00.730Z,29.82
2023-04-12T05:56:02.843Z,29.58
2023-04-12T05:57:04.743Z,29.80
2023-04-12T05:58:06.931Z,29.75
2023-04-12T05:59:10.955Z,29.62
2023-04-12T06:00:16.941Z,29.60
2023-04-12T06:01:19.862Z,29.58
2023-04-12T06:02:22.803Z,29.73
2023-04-12T06:03:25.732Z,29.40
2023-04-12T06:04:41.973Z,29.47
2023-04-12T06:05:48.649Z,29.52
2023-04-12T06:06:50.631Z,29.62
2023-04-12T06:07:52.526Z,29.62
2023-04-12T06:08:54.335Z,29.55
2023-04-12T06:09:56.453Z,29.73
2023-04-12T06:10:58.273Z,29.78
2023-04-12T06:12:00.223Z,29.82
2023-04-12T06:13:02.261Z,29.84
2023-04-12T06:14:04.272Z,29.63
2023-04-12T06:15:07.370Z,29.50
2023-04-12T06:16:09.528Z,29.55
2023-04-12T06:17:11.352Z,29.50
2023-04-12T06:18:13.675Z,29.70
2023-04-12T06:19:15.526Z,29.60
2023-04-12T06:20:17.825Z,29.61
2023-04-12T06:21:20.452Z,29.70
2023-04-12T06:22:22.306Z,29.83
2023-04-12T06:23:24.192Z,29.64
2023-04-12T06:24:26.081Z,29.64
2023-04-12T06:25:27.977Z,29.96
2023-04-12T06:26:38.999Z,29.80
2023-04-12T06:27:42.231Z,29.89
2023-04-12T06:28:44.290Z,29.67
2023-04-12T06:29:46.205Z,29.74
2023-04-12T06:30:48.131Z,29.64
2023-04-12T06:31:50.219Z,29.57
2023-04-12T06:32:52.259Z,29.90
2023-04-12T06:33:54.212Z,29.56
2023-04-12T06:34:56.543Z,29.76
2023-04-12T06:35:58.727Z,29.57
2023-04-12T06:37:00.688Z,29.73
2023-04-12T06:38:02.814Z,29.81
2023-04-12T06:39:04.950Z,29.71
2023-04-12T06:40:08.482Z,29.54
2023-04-12T06:41:11.745Z,29.79
2023-04-12T06:42:14.810Z,29.68
2023-04-12T06:43:22.667Z,29.91
2023-04-12T06:44:26.306Z,29.74
2023-04-12T06:45:28.262Z,29.54
2023-04-12T06:46:30.788Z,29.68
2023-04-12T06:47:33.587Z,29.68
2023-04-12T06:48:35.435Z,29.83
2023-04-12T06:49:38.652Z,29.55
2023-04-12T06:50:40.550Z,29.64
2023-04-12T06:51:42.351Z,29.84
2023-04-12T06:52:44.377Z,29.66
2023-04-12T06:53:46.275Z,29.83
2023-04-12T06:54:48.257Z,29.94
2023-04-12T06:55:50.448Z,30.00
2023-04-12T06:56:52.295Z,30.13
2023-04-12T06:57:54.301Z,30.00
2023-04-12T06:58:57.202Z,29.65
2023-04-12T06:59:59.440Z,29.69
2023-04-12T07:01:10.772Z,29.63
2023-04-12T07:02:12.781Z,29.60
2023-04-12T07:03:14.775Z,29.80
2023-04-12T07:04:16.972Z,29.92
2023-04-12T07:05:19.049Z,29.97
2023-04-12T07:06:25.527Z,29.84
2023-04-12T07:07:28.329Z,30.05
2023-04-12T07:08:30.930Z,29.83
2023-04-12T07:09:33.147Z,30.16
2023-04-12T07:10:36.353Z,30.15
2023-04-12T07:11:38.467Z,29.78
2023-04-12T07:12:40.418Z,29.94
2023-04-12T07:13:42.418Z,30.04
2023-04-12T07:14:44.822Z,30.02
2023-04-12T07:15:47.293Z,30.10
2023-04-12T07:16:49.542Z,29.97
2023-04-12T07:17:51.877Z,30.05
2023-04-12T07:18:53.918Z,30.02
2023-04-12T07:19:56.126Z,30.30
2023-04-12T07:20:59.181Z,30.27
2023-04-12T07:22:01.129Z,30.05
2023-04-12T07:23:03.362Z,30.24
2023-04-12T07:24:05.857Z,30.03
2023-04-12T07:25:10.856Z,30.08
2023-04-12T07:26:12.844Z,30.19
2023-04-12T07:27:15.087Z,30.22
2023-04-12T07:28:17.107Z,30.12
2023-04-12T07:29:19.381Z,30.12
2023-04-12T07:30:21.498Z,30.20
2023-04-12T07:31:24.160Z,30.19
2023-04-12T07:32:26.185Z,30.49
2023-04-12T07:33:28.440Z,30.09
2023-04-12T07:34:31.389Z,30.39
2023-04-12T07:35:34.038Z,30.57
2023-04-12T07:36:35.911Z,30.24
2023-04-12T07:37:38.086Z,30.09
2023-04-12T07:38:39.931Z,30.30
2023-04-12T07:39:41.820Z,30.00
2023-04-12T07:40:43.922Z,29.95
2023-04-12T07:41:46.659Z,30.39
2023-04-12T07:42:48.466Z,30.23
2023-04-12T07:43:51.125Z,30.59
2023-04-12T07:44:53.168Z,30.49
2023-04-12T07:45:56.398Z,30.31
2023-04-12T07:46:58.440Z,30.48
2023-04-12T07:48:00.510Z,30.47
2023-04-12T07:49:02.694Z,30.38
2023-04-12T07:50:05.781Z,30.37
2023-04-12T07:51:07.673Z,30.61
2023-04-12T07:52:09.664Z,30.54
2023-04-12T07:53:28.637Z,30.69
2023-04-12T07:54:30.849Z,30.46
2023-04-12T07:55:33.078Z,30.48
2023-04-12T07:56:36.290Z,30.50
2023-04-12T07:57:38.237Z,30.70
2023-04-12T07:58:40.863Z,30.41
2023-04-12T07:59:42.987Z,30.64
2023-04-12T08:00:47.028Z,30.55
2023-04-12T08:01:48.975Z,30.36
2023-04-12T08:02:51.306Z,30.41
2023-04-12T08:03:53.439Z,30.47
2023-04-12T08:04:55.822Z,30.50
2023-04-12T08:05:57.784Z,30.33
2023-04-12T08:06:59.799Z,30.54
2023-04-12T08:08:02.154Z,30.57
2023-04-12T08:09:04.309Z,30.54
2023-04-12T08:10:07.886Z,30.51
2023-04-12T08:11:09.871Z,30.49
2023-04-12T08:12:12.151Z,30.67
2023-04-12T08:13:14.581Z,30.36
2023-04-12T08:14:16.502Z,30.28
2023-04-12T08:15:18.574Z,30.50
2023-04-12T08:16:21.103Z,30.48
2023-04-12T08:17:23.255Z,30.29
2023-04-12T08:18:25.391Z,30.25
2023-04-12T08:19:27.571Z,30.38
2023-04-12T08:20:30.438Z,30.14
2023-04-12T08:21:33.649Z,30.36
2023-04-12T08:22:35.905Z,29.91
2023-04-12T08:23:38.213Z,30.11
2023-04-12T08:24:40.152Z,30.05
2023-04-12T08:25:42.189Z,29.76
2023-04-12T08:26:44.020Z,29.88
2023-04-12T08:27:46.207Z,29.69
2023-04-12T08:28:48.653Z,29.84
2023-04-12T08:29:51.507Z,29.89
2023-04-12T08:30:53.652Z,29.90
2023-04-12T08:31:56.316Z,30.10
2023-04-12T08:32:58.444Z,30.25
2023-04-12T08:34:00.499Z,29.92
2023-04-12T08:35:05.735Z,30.05
2023-04-12T08:36:08.535Z,29.80
2023-04-12T08:37:11.007Z,29.86
2023-04-12T08:38:14.852Z,30.01
2023-04-12T08:39:17.435Z,30.11
2023-04-12T08:40:21.982Z,30.05
2023-04-12T08:41:25.072Z,30.03
2023-04-12T08:42:28.012Z,30.13
2023-04-12T08:43:33.084Z,29.64
2023-04-12T08:44:40.167Z,29.86
2023-04-12T08:45:42.517Z,30.01
2023-04-12T08:46:45.980Z,30.03
2023-04-12T08:47:48.088Z,30.00
2023-04-12T08:48:54.923Z,29.83
2023-04-12T08:49:57.569Z,29.92
2023-04-12T08:51:00.979Z,30.12
2023-04-12T08:52:12.572Z,29.89
2023-04-12T08:53:14.814Z,29.87
2023-04-12T08:54:16.714Z,30.10
2023-04-12T08:55:18.616Z,30.09
2023-04-12T08:56:23.254Z,29.90
2023-04-12T08:57:26.442Z,29.95
2023-04-12T08:58:30.670Z,29.88
2023-04-12T08:59:37.735Z,30.08
2023-04-12T09:00:41.444Z,30.02
2023-04-12T09:01:43.768Z,29.99
2023-04-12T09:02:47.284Z,30.01
2023-04-12T09:03:49.606Z,29.78
2023-04-12T09:04:54.071Z,30.06
2023-04-12T09:05:56.560Z,30.02
2023-04-12T09:06:58.922Z,30.00
2023-04-12T09:08:00.943Z,29.75
2023-04-12T09:09:08.034Z,30.02
2023-04-12T09:10:10.637Z,29.97
2023-04-12T09:11:27.293Z,30.18
2023-04-12T09:12:29.239Z,30.08
2023-04-12T09:13:35.604Z,30.37
2023-04-12T09:14:39.823Z,30.50
2023-04-12T09:15:51.294Z,30.29
2023-04-12T09:16:53.275Z,30.54
2023-04-12T09:18:08.442Z,30.61
2023-04-12T09:19:10.474Z,30.42
2023-04-12T09:20:19.305Z,30.47
2023-04-12T09:21:21.393Z,30.75
2023-04-12T09:22:37.565Z,30.86
2023-04-12T09:23:39.674Z,30.65
2023-04-12T09:24:53.443Z,30.64
2023-04-12T09:25:55.502Z,30.75
2023-04-12T09:27:07.506Z,30.83
2023-04-12T09:28:26.093Z,30.82
2023-04-12T09:29:28.629Z,30.74
2023-04-12T09:30:30.517Z,30.80
2023-04-12T09:31:32.567Z,30.80
2023-04-12T09:32:34.695Z,30.58
2023-04-12T09:33:39.523Z,30.79
2023-04-12T09:34:57.733Z,31.04
2023-04-12T09:36:05.212Z,30.64
2023-04-12T09:37:17.315Z,31.13
2023-04-12T09:38:19.488Z,31.14
2023-04-12T09:39:31.634Z,31.30
2023-04-12T09:40:36.386Z,30.87
2023-04-12T09:41:38.773Z,30.93
2023-04-12T09:42:56.680Z,31.06
2023-04-12T09:44:01.658Z,31.02
2023-04-12T09:45:26.163Z,30.92
2023-04-12T09:46:28.693Z,30.95
2023-04-12T09:47:41.237Z,30.91
2023-04-12T09:48:54.216Z,31.21
2023-04-12T09:49:56.204Z,31.17
2023-04-12T09:51:00.352Z,31.14
2023-04-12T09:52:02.713Z,31.07
2023-04-12T09:53:18.549Z,30.99
2023-04-12T09:54:21.359Z,31.40
2023-04-12T09:55:28.986Z,31.26
2023-04-12T09:56:35.833Z,31.04
2023-04-12T09:57:43.338Z,31.13
2023-04-12T09:58:47.344Z,31.00
2023-04-12T09:59:52.730Z,31.33
2023-04-12T10:00:59.217Z,31.15
2023-04-12T10:02:01.699Z,31.41
2023-04-12T10:03:04.658Z,31.45
2023-04-12T10:04:08.897Z,31.29
2023-04-12T10:05:13.427Z,31.13
2023-04-12T10:06:16.926Z,31.33
2023-04-12T10:07:19.648Z,31.51
2023-04-12T10:08:29.705Z,31.65
2023-04-12T10:09:33.335Z,31.46
2023-04-12T10:10:36.073Z,31.90
2023-04-12T10:11:42.167Z,32.00
2023-04-12T10:12:48.568Z,31.76
2023-04-12T10:13:52.352Z,31.83
2023-04-12T10:14:55.821Z,32.11
2023-04-12T10:15:59.570Z,31.88
2023-04-12T10:17:04.843Z,32.36
2023-04-12T10:18:08.439Z,32.07
2023-04-12T10:19:13.132Z,32.28
2023-04-12T10:20:17.312Z,32.39
2023-04-12T10:21:19.709Z,32.16
2023-04-12T10:22:22.457Z,32.17
2023-04-12T10:23:24.397Z,31.98
2023-04-12T10:24:29.255Z,32.12
2023-04-12T10:25:32.031Z,32.15
2023-04-12T10:26:34.710Z,32.07
2023-04-12T10:27:37.380Z,32.22
2023-04-12T10:28:39.434Z,32.10
2023-04-12T10:29:43.203Z,32.12
2023-04-12T10:30:48.325Z,32.02
2023-04-12T10:31:51.090Z,32.21
2023-04-12T10:33:05.486Z,32.07
2023-04-12T10:34:07.642Z,32.02
2023-04-12T10:35:11.914Z,31.98
2023-04-12T10:36:14.365Z,32.05
2023-04-12T10:37:16.273Z,32.50
2023-04-12T10:38:19.289Z,32.25
2023-04-12T10:39:54.505Z,31.90
2023-04-12T10:41:14.251Z,31.93
2023-04-12T10:42:29.603Z,32.00
2023-04-12T10:43:31.623Z,32.15
2023-04-12T10:44:33.712Z,32.36
2023-04-12T10:45:37.289Z,32.20
2023-04-12T10:46:45.839Z,32.32
2023-04-12T10:47:53.384Z,32.26
2023-04-12T10:48:55.636Z,32.15
2023-04-12T10:50:27.537Z,32.12
2023-04-12T10:51:29.440Z,32.17
2023-04-12T10:52:31.584Z,32.20
2023-04-12T10:53:33.756Z,32.28
2023-04-12T10:54:36.753Z,32.33
2023-04-12T10:55:44.807Z,32.16
2023-04-12T10:56:48.108Z,31.59
2023-04-12T10:57:50.496Z,31.96
2023-04-12T10:58:52.549Z,32.11
2023-04-12T10:59:59.702Z,32.05
2023-04-12T11:01:10.886Z,32.10
2023-04-12T11:02:13.802Z,31.86
2023-04-12T11:03:16.410Z,31.91
2023-04-12T11:04:21.982Z,31.96
2023-04-12T11:05:24.570Z,31.50
2023-04-12T11:07:09.775Z,31.75
2023-04-12T11:08:13.044Z,31.62
2023-04-12T11:09:18.615Z,31.49
2023-04-12T11:10:22.111Z,31.62
2023-04-12T11:11:27.505Z,31.49
2023-04-12T11:12:29.614Z,31.44
2023-04-12T11:13:39.343Z,31.49
2023-04-12T11:14:48.658Z,31.63
2023-04-12T11:15:59.085Z,31.03
2023-04-12T11:17:07.485Z,31.33
2023-04-12T11:18:10.256Z,31.25
2023-04-12T11:19:12.304Z,31.17
2023-04-12T11:20:14.309Z,31.06
2023-04-12T11:21:19.787Z,31.21
2023-04-12T11:22:27.882Z,31.32
2023-04-12T11:23:31.171Z,31.32
2023-04-12T11:24:34.087Z,31.08
2023-04-12T11:25:37.068Z,31.06
2023-04-12T11:26:40.200Z,31.03
2023-04-12T11:27:51.468Z,30.95
2023-04-12T11:28:55.868Z,31.29
2023-04-12T11:30:00.861Z,31.20
2023-04-12T11:31:03.763Z,31.07
2023-04-12T11:32:16.700Z,31.01
2023-04-12T11:33:39.981Z,31.17
2023-04-12T11:34:47.254Z,31.04
2023-04-12T11:35:49.294Z,31.06
2023-04-12T11:36:55.450Z,30.99
2023-04-12T11:37:58.934Z,31.27
2023-04-12T11:39:00.890Z,31.08
2023-04-12T11:40:05.753Z,31.05
2023-04-12T11:41:10.360Z,31.11
2023-04-12T11:42:20.870Z,31.09
2023-04-12T11:43:23.312Z,31.34
2023-04-12T11:44:25.875Z,31.38
2023-04-12T11:45:29.490Z,31.02
2023-04-12T11:46:35.675Z,31.20
2023-04-12T11:47:43.965Z,31.31
2023-04-12T11:48:47.440Z,31.12
2023-04-12T11:49:53.281Z,31.12
2023-04-12T11:51:10.287Z,31.20
2023-04-12T11:52:14.360Z,31.43
2023-04-12T11:53:18.295Z,31.37
2023-04-12T11:54:20.239Z,31.14
2023-04-12T11:55:23.397Z,31.13
2023-04-12T11:56:33.505Z,31.30
2023-04-12T11:57:35.620Z,31.09
2023-04-12T11:58:37.532Z,31.14
2023-04-12T11:59:39.709Z,31.34
2023-04-12T12:00:46.014Z,31.22
2023-04-12T12:01:51.769Z,31.18
2023-04-12T12:03:06.645Z,31.05
2023-04-12T12:04:09.579Z,31.24
2023-04-12T12:05:11.913Z,31.62
2023-04-12T12:06:15.827Z,31.22
2023-04-12T12:07:19.467Z,31.01
2023-04-12T12:08:22.172Z,31.29
2023-04-12T12:09:26.349Z,31.11
2023-04-12T12:10:42.099Z,31.50
2023-04-12T12:11:49.622Z,31.32
2023-04-12T12:12:51.548Z,31.37
2023-04-12T12:13:56.468Z,31.34
2023-04-12T12:15:00.868Z,31.18
2023-04-12T12:16:07.546Z,31.62
2023-04-12T12:17:15.403Z,31.19
2023-04-12T12:18:17.422Z,31.39
2023-04-12T12:19:28.072Z,31.38
2023-04-12T12:20:30.833Z,31.38
2023-04-12T12:21:32.776Z,31.24
2023-04-12T12:22:35.046Z,31.27
2023-04-12T12:23:37.490Z,31.50
2023-04-12T12:24:45.867Z,31.43
2023-04-12T12:25:47.708Z,31.35
2023-04-12T12:26:51.602Z,31.26
2023-04-12T12:27:59.550Z,31.23
2023-04-12T12:29:01.582Z,31.25
2023-04-12T12:30:07.379Z,31.38
2023-04-12T12:31:12.857Z,31.45
2023-04-12T12:32:15.011Z,31.55
2023-04-12T12:33:24.744Z,31.51
2023-04-12T12:34:34.709Z,31.25
2023-04-12T12:35:37.275Z,31.43
2023-04-12T12:36:39.290Z,31.34
2023-04-12T12:37:53.308Z,31.49
2023-04-12T12:38:55.499Z,31.53
2023-04-12T12:40:13.665Z,31.20
2023-04-12T12:41:21.315Z,31.43
2023-04-12T12:42:23.268Z,31.43
2023-04-12T12:43:25.719Z,31.16
2023-04-12T12:44:27.640Z,31.49
2023-04-12T12:45:32.914Z,31.55
2023-04-12T12:48:15.941Z,31.09
2023-04-12T12:49:19.060Z,31.52
2023-04-12T12:50:25.121Z,31.55
2023-04-12T12:51:27.880Z,31.94
2023-04-12T12:52:29.778Z,31.58
2023-04-12T12:53:31.683Z,31.92
2023-04-12T12:54:41.008Z,31.80
2023-04-12T12:55:43.495Z,31.59
2023-04-12T12:56:46.308Z,31.69
2023-04-12T12:58:06.170Z,31.65
2023-04-12T12:59:09.130Z,31.56
2023-04-12T13:00:15.032Z,31.32
2023-04-12T13:01:17.105Z,31.48
2023-04-12T13:02:19.926Z,31.52
2023-04-12T13:03:22.251Z,31.43
2023-04-12T13:04:24.782Z,31.74
2023-04-12T13:05:26.763Z,31.58
2023-04-12T13:06:28.955Z,32.04
2023-04-12T13:07:31.201Z,31.71
2023-04-12T13:08:35.709Z,31.88
2023-04-12T13:09:37.652Z,31.74
2023-04-12T13:10:40.207Z,31.34
2023-04-12T13:11:42.098Z,31.42
2023-04-12T13:12:44.596Z,31.63
2023-04-12T13:13:46.776Z,31.65
2023-04-12T13:14:49.442Z,31.71
2023-04-12T13:15:52.921Z,31.50
2023-04-12T13:16:55.216Z,31.59
2023-04-12T13:17:57.188Z,31.67
2023-04-12T13:18:59.490Z,31.53
2023-04-12T13:20:01.478Z,31.59
2023-04-12T13:21:03.648Z,31.65
2023-04-12T13:22:07.424Z,31.59
2023-04-12T13:23:09.907Z,31.68
2023-04-12T13:24:12.421Z,31.55
2023-04-12T13:25:15.633Z,31.51
2023-04-12T13:26:17.803Z,31.60
2023-04-12T13:27:20.020Z,31.50
2023-04-12T13:28:22.216Z,31.55
2023-04-12T13:29:24.067Z,31.54
2023-04-12T13:30:25.932Z,31.50
2023-04-12T13:31:27.971Z,31.71
2023-04-12T13:32:30.182Z,31.47
2023-04-12T13:33:32.666Z,31.71
2023-04-12T13:34:35.133Z,31.71
2023-04-12T13:35:37.065Z,31.55
2023-04-12T13:36:39.016Z,31.67
2023-04-12T13:37:42.228Z,31.87
2023-04-12T13:38:44.511Z,31.57
2023-04-12T13:39:46.785Z,31.57
2023-04-12T13:40:49.143Z,31.78
2023-04-12T13:41:51.885Z,31.89
2023-04-12T13:42:54.107Z,31.75
2023-04-12T13:43:55.973Z,31.65
2023-04-12T13:44:58.025Z,31.87
2023-04-12T13:46:00.324Z,31.64
2023-04-12T13:47:03.449Z,31.65
2023-04-12T13:48:05.439Z,31.55
2023-04-12T13:49:07.371Z,31.65
2023-04-12T13:50:09.926Z,31.86
2023-04-12T13:51:11.993Z,31.73